createdAt,value
2019-03-05T00:00:12.186Z,99598.06
2019-03-05T00:02:39.471Z,99598.89
2019-03-05T00:05:07.167Z,99596.16
2019-03-05T00:07:34.451Z,99597.24
2019-03-05T00:10:01.696Z,99597.22
2019-03-05T00:12:28.961Z,99603.44
2019-03-05T00:14:56.269Z,99605.44
2019-03-05T00:17:23.513Z,99608.42
2019-03-05T00:19:50.792Z,99607.63
2019-03-05T00:22:18.078Z,99612.41
2019-03-05T00:25:02.549Z,99602.98
2019-03-05T00:27:33.247Z,99608.55
2019-03-05T00:30:39.546Z,99613.18
2019-03-05T00:33:17.709Z,99611.22
2019-03-05T00:35:59.958Z,99610.67
2019-03-05T00:39:13.686Z,99605.75
2019-03-05T00:42:17.355Z,99614.42
2019-03-05T00:44:58.225Z,99617.03
2019-03-05T00:48:13.288Z,99618.91
2019-03-05T00:51:08.273Z,99623.59
2019-03-05T00:54:03.405Z,99621.22
2019-03-05T00:56:53.950Z,99631.88
2019-03-05T00:59:55.494Z,99632.83
2019-03-05T01:02:41.575Z,99641.94
2019-03-05T01:05:22.503Z,99638.94
2019-03-05T01:07:49.811Z,99654.88
2019-03-05T01:10:18.533Z,99664.16
2019-03-05T01:12:45.870Z,99653.09
2019-03-05T01:15:13.543Z,99666.67
2019-03-05T01:17:40.810Z,99674.53
2019-03-05T01:20:08.898Z,99668.04
2019-03-05T01:22:36.182Z,99680.37
2019-03-05T01:25:03.971Z,99675.09
2019-03-05T01:27:31.259Z,99676.32
2019-03-05T01:29:58.553Z,99685.00
2019-03-05T01:32:38.868Z,99684.30
2019-03-05T01:35:26.415Z,99687.04
2019-03-05T01:37:53.866Z,99690.25
2019-03-05T01:40:33.234Z,99696.19
2019-03-05T01:43:00.486Z,99697.05
2019-03-05T01:45:27.807Z,99683.70
2019-03-05T01:47:55.084Z,99682.19
2019-03-05T01:50:22.319Z,99687.70
2019-03-05T01:52:49.570Z,99697.16
2019-03-05T01:55:16.838Z,99696.14
2019-03-05T01:57:44.071Z,99710.83
2019-03-05T02:00:12.056Z,99704.74
2019-03-05T02:02:39.882Z,99710.48
2019-03-05T02:05:07.415Z,99720.81
2019-03-05T02:07:34.787Z,99717.74
2019-03-05T02:10:05.057Z,99718.27
2019-03-05T02:12:32.336Z,99718.84
2019-03-05T02:14:59.571Z,99720.01
2019-03-05T02:17:27.458Z,99709.41
2019-03-05T02:19:54.738Z,99709.39
2019-03-05T02:22:25.717Z,99716.22
2019-03-05T02:25:26.999Z,99732.13
2019-03-05T02:28:19.722Z,99731.99
2019-03-05T02:31:04.731Z,99729.97
2019-03-05T02:34:01.355Z,99721.98
2019-03-05T02:37:03.496Z,99729.78
2019-03-05T02:39:46.275Z,99726.55
2019-03-05T02:42:23.295Z,99733.44
2019-03-05T02:45:34.119Z,99726.89
2019-03-05T02:48:31.335Z,99734.08
2019-03-05T02:51:27.081Z,99742.11
2019-03-05T02:54:40.290Z,99747.34
2019-03-05T02:57:07.201Z,99740.64
2019-03-05T02:59:37.122Z,99748.77
2019-03-05T03:02:24.099Z,99746.16
2019-03-05T03:04:54.575Z,99754.53
2019-03-05T03:07:21.812Z,99751.38
2019-03-05T03:10:09.734Z,99754.14
2019-03-05T03:12:37.054Z,99750.78
2019-03-05T03:15:07.256Z,99744.84
2019-03-05T03:17:35.634Z,99751.03
2019-03-05T03:20:03.403Z,99751.89
2019-03-05T03:22:30.697Z,99749.78
2019-03-05T03:24:57.974Z,99748.25
2019-03-05T03:27:25.226Z,99746.23
2019-03-05T03:29:52.480Z,99748.50
2019-03-05T03:32:19.777Z,99748.13
2019-03-05T03:34:47.029Z,99746.01
2019-03-05T03:37:14.341Z,99747.68
2019-03-05T03:39:41.631Z,99755.98
2019-03-05T03:42:08.979Z,99753.84
2019-03-05T03:44:36.275Z,99760.90
2019-03-05T03:47:03.508Z,99758.95
2019-03-05T03:49:30.807Z,99762.88
2019-03-05T03:51:58.098Z,99769.56
2019-03-05T03:54:25.403Z,99767.44
2019-03-05T03:56:52.879Z,99761.33
2019-03-05T03:59:20.165Z,99768.52
2019-03-05T04:01:47.396Z,99770.10
2019-03-05T04:04:14.627Z,99765.91
2019-03-05T04:06:43.250Z,99770.50
2019-03-05T04:09:11.020Z,99767.35
2019-03-05T04:11:38.258Z,99775.88
2019-03-05T04:14:05.621Z,99773.23
2019-03-05T04:16:32.855Z,99774.94
2019-03-05T04:19:02.011Z,99774.66
2019-03-05T04:21:29.261Z,99781.22
2019-03-05T04:23:56.840Z,99780.84
2019-03-05T04:26:24.106Z,99782.19
2019-03-05T04:28:51.352Z,99787.03
2019-03-05T04:31:18.660Z,99783.95
2019-03-05T04:33:45.908Z,99787.64
2019-03-05T04:36:13.202Z,99793.72
2019-03-05T04:38:40.493Z,99789.75
2019-03-05T04:41:07.774Z,99794.98
2019-03-05T04:43:35.111Z,99793.30
2019-03-05T04:46:12.641Z,99786.58
2019-03-05T04:48:40.627Z,99792.86
2019-03-05T04:51:19.749Z,99800.12
2019-03-05T04:53:46.989Z,99795.95
2019-03-05T04:56:14.223Z,99793.67
2019-03-05T04:58:41.591Z,99793.06
2019-03-05T05:01:08.849Z,99798.38
2019-03-05T05:03:36.137Z,99802.09
2019-03-05T05:06:03.395Z,99803.25
2019-03-05T05:08:30.632Z,99797.56
2019-03-05T05:10:58.216Z,99800.27
2019-03-05T05:13:25.449Z,99800.54
2019-03-05T05:15:52.672Z,99802.19
2019-03-05T05:18:19.947Z,99808.04
2019-03-05T05:20:47.232Z,99808.41
2019-03-05T05:23:14.486Z,99803.70
2019-03-05T05:25:41.813Z,99816.08
2019-03-05T05:28:09.085Z,99812.75
2019-03-05T05:30:37.567Z,99809.73
2019-03-05T05:33:05.081Z,99817.00
2019-03-05T05:35:32.476Z,99813.73
2019-03-05T05:38:01.008Z,99819.44
2019-03-05T05:40:30.413Z,99827.00
2019-03-05T05:42:57.691Z,99839.45
2019-03-05T05:45:27.286Z,99834.27
2019-03-05T05:47:54.521Z,99831.63
2019-03-05T05:50:21.787Z,99840.02
2019-03-05T05:52:49.030Z,99842.52
2019-03-05T05:55:16.381Z,99845.51
2019-03-05T05:57:43.676Z,99850.89
2019-03-05T06:00:13.149Z,99839.48
2019-03-05T06:02:40.438Z,99837.62
2019-03-05T06:05:07.692Z,99845.05
2019-03-05T06:07:35.497Z,99847.77
2019-03-05T06:10:03.299Z,99842.20
2019-03-05T06:12:30.550Z,99847.30
2019-03-05T06:14:57.802Z,99846.13
2019-03-05T06:17:25.065Z,99842.37
2019-03-05T06:19:52.394Z,99839.98
2019-03-05T06:22:19.714Z,99855.70
2019-03-05T06:24:46.945Z,99860.22
2019-03-05T06:27:14.239Z,99865.71
2019-03-05T06:29:41.487Z,99868.66
2019-03-05T06:32:08.806Z,99868.97
2019-03-05T06:34:36.068Z,99878.47
2019-03-05T06:37:03.310Z,99875.11
2019-03-05T06:39:30.594Z,99880.48
2019-03-05T06:41:57.826Z,99886.77
2019-03-05T06:44:25.117Z,99878.53
2019-03-05T06:46:52.381Z,99888.54
2019-03-05T06:49:19.636Z,99892.05
2019-03-05T06:51:46.896Z,99888.04
2019-03-05T06:54:14.190Z,99896.59
2019-03-05T06:56:43.886Z,99895.70
2019-03-05T06:59:11.138Z,99899.45
2019-03-05T07:01:38.679Z,99900.77
2019-03-05T07:04:06.008Z,99909.11
2019-03-05T07:06:50.737Z,99912.80
2019-03-05T07:09:40.487Z,99910.33
2019-03-05T07:12:15.131Z,99921.50
2019-03-05T07:15:29.906Z,99915.52
2019-03-05T07:18:03.705Z,99918.31
2019-03-05T07:20:56.315Z,99923.02
2019-03-05T07:23:39.856Z,99934.77
2019-03-05T07:26:07.146Z,99937.72
2019-03-05T07:28:34.406Z,99941.83
2019-03-05T07:31:02.087Z,99946.75
2019-03-05T07:33:29.382Z,99948.70
2019-03-05T07:35:56.639Z,99951.25
2019-03-05T07:38:24.092Z,99950.67
2019-03-05T07:40:51.559Z,99959.86
2019-03-05T07:43:18.872Z,99962.38
2019-03-05T07:45:46.166Z,99962.69
2019-03-05T07:48:13.482Z,99962.41
2019-03-05T07:50:40.719Z,99983.20
2019-03-05T07:53:07.972Z,99976.77
2019-03-05T07:55:35.232Z,99989.59
2019-03-05T07:58:02.525Z,99991.91
2019-03-05T08:00:30.159Z,99995.05
2019-03-05T08:02:57.802Z,99994.71
2019-03-05T08:05:25.086Z,99998.05
2019-03-05T08:07:52.413Z,100011.94
2019-03-05T08:10:25.353Z,100008.91
2019-03-05T08:13:30.079Z,100014.09
2019-03-05T08:16:24.932Z,100024.29
2019-03-05T08:18:52.221Z,100027.63
2019-03-05T08:21:19.589Z,100042.52
2019-03-05T08:23:48.417Z,100045.13
2019-03-05T08:26:16.248Z,100045.13
2019-03-05T08:28:43.548Z,100057.86
2019-03-05T08:31:11.344Z,100057.36
2019-03-05T08:33:38.592Z,100058.39
2019-03-05T08:36:05.907Z,100055.96
2019-03-05T08:38:33.176Z,100063.13
2019-03-05T08:41:00.473Z,100066.23
2019-03-05T08:43:27.826Z,100073.98
2019-03-05T08:45:55.119Z,100076.78
2019-03-05T08:48:22.409Z,100089.02
2019-03-05T08:50:49.683Z,100088.13
2019-03-05T08:53:16.923Z,100091.69
2019-03-05T08:55:44.148Z,100096.62
2019-03-05T08:58:11.518Z,100107.86
2019-03-05T09:00:38.770Z,100111.16
2019-03-05T09:03:06.270Z,100109.03
2019-03-05T09:05:33.566Z,100108.63
2019-03-05T09:08:00.827Z,100117.01
2019-03-05T09:10:28.101Z,100118.64
2019-03-05T09:12:55.321Z,100119.64
2019-03-05T09:15:22.568Z,100127.31
2019-03-05T09:17:49.847Z,100118.86
2019-03-05T09:20:17.284Z,100127.12
2019-03-05T09:22:44.685Z,100121.93
2019-03-05T09:25:12.989Z,100120.55
2019-03-05T09:27:40.264Z,100129.30
2019-03-05T09:30:13.419Z,100127.91
2019-03-05T09:32:40.793Z,100134.91
2019-03-05T09:35:08.576Z,100135.70
2019-03-05T09:37:35.820Z,100135.70
2019-03-05T09:40:03.783Z,100140.88
2019-03-05T09:42:39.533Z,100144.37
2019-03-05T09:45:00.501Z,100140.16
2019-03-05T09:47:27.801Z,100143.86
2019-03-05T09:49:55.101Z,100145.66
2019-03-05T09:52:22.349Z,100147.91
2019-03-05T09:54:49.603Z,100152.44
2019-03-05T09:57:16.877Z,100158.45
2019-03-05T09:59:44.159Z,100156.91
2019-03-05T10:02:11.712Z,100160.36
2019-03-05T10:04:39.023Z,100155.11
2019-03-05T10:07:06.323Z,100157.17
2019-03-05T10:09:33.516Z,100165.50
2019-03-05T10:12:00.835Z,100169.42
2019-03-05T10:14:28.103Z,100171.38
2019-03-05T10:16:55.375Z,100184.88
2019-03-05T10:19:22.624Z,100181.94
2019-03-05T10:21:50.104Z,100188.77
2019-03-05T10:24:17.376Z,100181.55
2019-03-05T10:26:45.164Z,100193.19
2019-03-05T10:29:12.445Z,100195.83
2019-03-05T10:31:39.796Z,100187.08
2019-03-05T10:34:07.092Z,100190.45
2019-03-05T10:36:37.235Z,100201.47
2019-03-05T10:39:30.469Z,100204.02
2019-03-05T10:41:55.113Z,100217.77
2019-03-05T10:44:22.358Z,100220.44
2019-03-05T10:46:49.743Z,100228.39
2019-03-05T10:49:17.000Z,100229.46
2019-03-05T10:51:44.387Z,100231.45
2019-03-05T10:54:11.631Z,100234.68
2019-03-05T10:56:42.391Z,100242.14
2019-03-05T10:59:09.654Z,100245.44
2019-03-05T11:01:37.182Z,100247.84
2019-03-05T11:04:04.518Z,100249.88
2019-03-05T11:06:32.160Z,100255.66
2019-03-05T11:08:59.399Z,100260.16
2019-03-05T11:11:26.765Z,100261.10
2019-03-05T11:13:54.062Z,100272.22
2019-03-05T11:16:30.414Z,100270.91
2019-03-05T11:18:51.615Z,100268.92
2019-03-05T11:21:18.880Z,100264.34
2019-03-05T11:23:46.332Z,100278.16
2019-03-05T11:26:13.606Z,100271.92
2019-03-05T11:28:43.848Z,100276.64
2019-03-05T11:31:11.179Z,100280.60
2019-03-05T11:33:38.436Z,100287.52
2019-03-05T11:36:06.149Z,100282.10
2019-03-05T11:38:33.469Z,100285.84
2019-03-05T11:41:01.363Z,100294.87
2019-03-05T11:43:28.615Z,100294.43
2019-03-05T11:45:55.877Z,100294.25
2019-03-05T11:48:23.152Z,100295.89
2019-03-05T11:50:51.605Z,100300.00
2019-03-05T11:53:19.014Z,100300.00
2019-03-05T11:55:46.322Z,100300.77
2019-03-05T11:58:13.586Z,100297.02
2019-03-05T12:00:59.242Z,100305.69
2019-03-05T12:03:26.503Z,100308.70
2019-03-05T12:05:53.832Z,100314.59
2019-03-05T12:08:21.116Z,100309.28
2019-03-05T12:10:48.392Z,100314.92
2019-03-05T12:13:15.831Z,100306.39
2019-03-05T12:15:43.155Z,100306.39
2019-03-05T12:18:10.535Z,100322.19
2019-03-05T12:20:37.805Z,100323.55
2019-03-05T12:23:06.715Z,100329.06
2019-03-05T12:25:36.122Z,100317.21
2019-03-05T12:28:10.181Z,100323.19
2019-03-05T12:30:33.218Z,100318.10
2019-03-05T12:33:00.512Z,100325.20
2019-03-05T12:35:27.868Z,100328.31
2019-03-05T12:37:55.137Z,100337.33
2019-03-05T12:40:22.479Z,100346.65
2019-03-05T12:42:49.867Z,100339.70
2019-03-05T12:45:17.417Z,100339.70
2019-03-05T12:47:44.896Z,100356.61
2019-03-05T12:50:14.809Z,100356.61
2019-03-05T12:52:42.370Z,100350.73
2019-03-05T12:55:10.044Z,100355.79
2019-03-05T12:57:37.333Z,100355.79
2019-03-05T13:00:07.557Z,100355.79
2019-03-05T13:02:35.857Z,100354.22
2019-03-05T13:05:04.328Z,100359.66
2019-03-05T13:07:32.800Z,100360.17
2019-03-05T13:10:02.422Z,100357.90
2019-03-05T13:12:32.217Z,100349.09
2019-03-05T13:14:58.488Z,100349.09
2019-03-05T13:17:25.764Z,100356.05
2019-03-05T13:19:53.761Z,100361.05
2019-03-05T13:22:24.875Z,100362.17
2019-03-05T13:24:51.316Z,100355.59
2019-03-05T13:27:22.420Z,100362.69
2019-03-05T13:29:47.811Z,100361.37
2019-03-05T13:32:16.804Z,100361.85
2019-03-05T13:34:44.554Z,100375.02
2019-03-05T13:37:11.810Z,100386.47
2019-03-05T13:39:39.074Z,100371.83
2019-03-05T13:42:07.869Z,100371.83
2019-03-05T13:44:35.832Z,100391.50
2019-03-05T13:47:05.759Z,100399.83
2019-03-05T13:50:17.604Z,100399.83
2019-03-05T13:53:26.210Z,100402.78
2019-03-05T13:56:46.396Z,100407.09
2019-03-05T13:59:40.219Z,100408.30
2019-03-05T14:02:08.317Z,100412.69
2019-03-05T14:05:05.069Z,100411.86
2019-03-05T14:08:08.894Z,100417.00
2019-03-05T14:10:36.160Z,100438.44
2019-03-05T14:13:03.966Z,100417.08
2019-03-05T14:15:31.449Z,100428.41
2019-03-05T14:17:59.835Z,100428.41
2019-03-05T14:20:32.125Z,100428.84
2019-03-05T14:22:56.393Z,100433.94
2019-03-05T14:25:23.657Z,100433.94
2019-03-05T14:27:50.970Z,100422.22
2019-03-05T14:30:20.895Z,100422.22
2019-03-05T14:32:47.927Z,100433.75
2019-03-05T14:35:17.695Z,100430.11
2019-03-05T14:37:45.516Z,100442.04
2019-03-05T14:40:24.272Z,100442.80
2019-03-05T14:42:45.709Z,100442.80
2019-03-05T14:45:18.007Z,100443.58
2019-03-05T14:47:45.427Z,100437.28
2019-03-05T14:50:13.937Z,100448.99
2019-03-05T14:52:41.339Z,100457.14
2019-03-05T14:55:08.993Z,100457.14
2019-03-05T14:57:36.372Z,100463.58
2019-03-05T15:00:04.243Z,100462.58
2019-03-05T15:02:31.541Z,100474.48
2019-03-05T15:04:59.897Z,100472.20
2019-03-05T15:07:27.165Z,100471.34
2019-03-05T15:09:54.444Z,100471.34
2019-03-05T15:12:21.798Z,100460.84
2019-03-05T15:14:49.117Z,100460.84
2019-03-05T15:17:16.496Z,100458.92
2019-03-05T15:19:43.778Z,100470.66
2019-03-05T15:22:12.244Z,100469.44
2019-03-05T15:24:40.958Z,100469.44
2019-03-05T15:27:09.374Z,100480.36
2019-03-05T15:29:37.114Z,100486.80
2019-03-05T15:32:04.620Z,100486.80
2019-03-05T15:34:31.898Z,100491.72
2019-03-05T15:37:01.183Z,100495.80
2019-03-05T15:39:28.452Z,100485.13
2019-03-05T15:41:55.824Z,100499.28
2019-03-05T15:44:23.105Z,100499.28
2019-03-05T15:46:50.683Z,100501.91
2019-03-05T15:49:18.065Z,100502.19
2019-03-05T15:51:45.296Z,100502.99
2019-03-05T15:54:12.566Z,100499.61
2019-03-05T15:56:39.851Z,100502.73
2019-03-05T15:59:07.123Z,100508.92
2019-03-05T16:01:34.536Z,100512.08
2019-03-05T16:04:01.792Z,100503.08
2019-03-05T16:06:30.176Z,100503.08
2019-03-05T16:09:02.255Z,100514.36
2019-03-05T16:11:30.156Z,100520.31
2019-03-05T16:13:58.024Z,100517.59
2019-03-05T16:16:25.979Z,100535.98
2019-03-05T16:18:53.198Z,100518.16
2019-03-05T16:21:20.477Z,100524.36
2019-03-05T16:23:47.780Z,100529.09
2019-03-05T16:26:15.133Z,100534.43
2019-03-05T16:28:43.475Z,100535.64
2019-03-05T16:31:27.100Z,100535.64
2019-03-05T16:34:15.555Z,100542.36
2019-03-05T16:37:05.657Z,100544.52
2019-03-05T16:39:40.267Z,100545.31
2019-03-05T16:42:45.168Z,100550.91
2019-03-05T16:45:28.045Z,100543.00
2019-03-05T16:48:09.445Z,100550.62
2019-03-05T16:50:59.049Z,100550.62
2019-03-05T16:53:52.797Z,100557.69
2019-03-05T16:56:54.580Z,100562.99
2019-03-05T16:59:49.272Z,100567.72
2019-03-05T17:02:40.821Z,100564.48
2019-03-05T17:05:29.528Z,100574.66
2019-03-05T17:08:31.276Z,100587.26
2019-03-05T17:11:18.093Z,100592.61
2019-03-05T17:13:45.394Z,100597.50
2019-03-05T17:16:12.619Z,100605.53
2019-03-05T17:18:40.011Z,100612.25
2019-03-05T17:21:07.288Z,100607.98
2019-03-05T17:23:34.584Z,100608.22
2019-03-05T17:26:01.919Z,100607.83
2019-03-05T17:28:29.186Z,100613.67
2019-03-05T17:30:56.415Z,100628.73
2019-03-05T17:33:23.810Z,100625.30
2019-03-05T17:35:51.100Z,100636.55
2019-03-05T17:38:18.366Z,100647.58
2019-03-05T17:40:45.743Z,100647.58
2019-03-05T17:43:13.022Z,100650.91
2019-03-05T17:45:40.413Z,100654.74
2019-03-05T17:48:07.739Z,100653.22
2019-03-05T17:50:35.131Z,100653.22
2019-03-05T17:53:02.421Z,100660.98
2019-03-05T17:55:30.131Z,100670.09
2019-03-05T17:57:57.695Z,100671.83
2019-03-05T18:00:29.790Z,100669.45
2019-03-05T18:02:57.040Z,100675.27
2019-03-05T18:05:24.323Z,100671.66
2019-03-05T18:07:51.663Z,100673.89
2019-03-05T18:10:19.061Z,100682.78
2019-03-05T18:12:47.215Z,100683.52
2019-03-05T18:15:14.773Z,100684.94
2019-03-05T18:17:42.662Z,100682.78
2019-03-05T18:20:10.931Z,100694.05
2019-03-05T18:22:38.179Z,100695.07
2019-03-05T18:25:06.370Z,100697.09
2019-03-05T18:27:33.662Z,100690.02
2019-03-05T18:30:00.886Z,100691.39
2019-03-05T18:32:29.191Z,100692.08
2019-03-05T18:34:56.450Z,100692.61
2019-03-05T18:37:23.952Z,100689.60
2019-03-05T18:39:51.180Z,100693.00
2019-03-05T18:42:18.441Z,100694.16
2019-03-05T18:44:45.790Z,100694.05
2019-03-05T18:47:13.039Z,100696.02
2019-03-05T18:49:40.328Z,100692.58
2019-03-05T18:52:07.793Z,100699.84
2019-03-05T18:54:35.062Z,100700.61
2019-03-05T18:57:02.373Z,100697.94
2019-03-05T18:59:29.608Z,100697.94
2019-03-05T19:01:56.850Z,100708.59
2019-03-05T19:04:24.153Z,100718.09
2019-03-05T19:06:51.461Z,100718.09
2019-03-05T19:09:20.320Z,100715.97
2019-03-05T19:11:47.622Z,100711.84
2019-03-05T19:14:14.863Z,100724.34
2019-03-05T19:16:42.114Z,100715.56
2019-03-05T19:19:09.670Z,100724.30
2019-03-05T19:21:38.370Z,100731.81
2019-03-05T19:24:05.643Z,100726.74
2019-03-05T19:26:32.957Z,100733.07
2019-03-05T19:29:00.240Z,100729.36
2019-03-05T19:31:27.588Z,100733.83
2019-03-05T19:33:54.868Z,100728.81
2019-03-05T19:36:22.144Z,100737.94
2019-03-05T19:38:50.434Z,100721.09
2019-03-05T19:41:17.780Z,100730.53
2019-03-05T19:43:45.129Z,100723.44
2019-03-05T19:46:14.062Z,100725.80
2019-03-05T19:48:44.104Z,100722.15
2019-03-05T19:51:11.443Z,100716.13
2019-03-05T19:53:38.689Z,100721.14
2019-03-05T19:56:05.942Z,100719.41
2019-03-05T19:58:33.420Z,100726.38
2019-03-05T20:01:09.272Z,100713.20
2019-03-05T20:03:36.603Z,100719.83
2019-03-05T20:06:05.235Z,100721.24
2019-03-05T20:08:39.421Z,100724.47
2019-03-05T20:11:01.807Z,100718.30
2019-03-05T20:13:29.275Z,100729.50
2019-03-05T20:15:56.531Z,100737.58
2019-03-05T20:18:23.769Z,100735.87
2019-03-05T20:20:51.278Z,100737.86
2019-03-05T20:23:18.561Z,100740.94
2019-03-05T20:25:46.193Z,100731.31
2019-03-05T20:28:13.524Z,100742.25
2019-03-05T20:30:41.029Z,100739.72
2019-03-05T20:33:08.835Z,100741.80
2019-03-05T20:35:36.060Z,100737.20
2019-03-05T20:38:03.801Z,100738.22
2019-03-05T20:40:31.266Z,100746.57
2019-03-05T20:43:01.691Z,100755.65
2019-03-05T20:45:29.232Z,100761.43
2019-03-05T20:47:56.624Z,100758.06
2019-03-05T20:50:23.952Z,100757.46
2019-03-05T20:52:51.218Z,100750.76
2019-03-05T20:55:18.493Z,100754.84
2019-03-05T20:57:45.767Z,100752.83
2019-03-05T21:00:25.026Z,100758.48
2019-03-05T21:02:52.735Z,100754.34
2019-03-05T21:05:20.030Z,100752.06
2019-03-05T21:07:47.275Z,100745.34
2019-03-05T21:10:14.705Z,100751.39
2019-03-05T21:12:45.086Z,100743.83
2019-03-05T21:15:12.475Z,100751.12
2019-03-05T21:17:39.939Z,100749.81
2019-03-05T21:20:08.528Z,100748.09
2019-03-05T21:22:35.822Z,100746.65
2019-03-05T21:25:03.603Z,100745.63
2019-03-05T21:27:30.907Z,100745.25
2019-03-05T21:29:58.553Z,100750.56
2019-03-05T21:32:25.850Z,100753.30
2019-03-05T21:34:53.110Z,100748.14
2019-03-05T21:37:20.353Z,100753.45
2019-03-05T21:39:47.635Z,100755.63
2019-03-05T21:42:14.898Z,100756.61
2019-03-05T21:44:42.251Z,100756.94
2019-03-05T21:47:09.536Z,100756.47
2019-03-05T21:49:36.782Z,100756.72
2019-03-05T21:52:04.156Z,100759.59
2019-03-05T21:54:31.436Z,100761.51
2019-03-05T21:56:58.676Z,100756.00
2019-03-05T21:59:25.922Z,100755.22
2019-03-05T22:01:53.206Z,100762.03
2019-03-05T22:04:20.455Z,100763.97
2019-03-05T22:06:47.708Z,100761.36
2019-03-05T22:09:14.995Z,100759.25
2019-03-05T22:11:42.518Z,100757.57
2019-03-05T22:14:09.792Z,100762.15
2019-03-05T22:16:37.043Z,100760.61
2019-03-05T22:19:04.271Z,100758.14
2019-03-05T22:21:31.563Z,100759.58
2019-03-05T22:23:58.791Z,100758.33
2019-03-05T22:26:26.042Z,100756.03
2019-03-05T22:28:53.381Z,100763.55
2019-03-05T22:31:20.627Z,100762.56
2019-03-05T22:33:47.887Z,100759.45
2019-03-05T22:36:15.165Z,100762.06
2019-03-05T22:38:42.424Z,100759.16
2019-03-05T22:41:09.699Z,100758.89
2019-03-05T22:43:36.983Z,100758.89
2019-03-05T22:46:04.297Z,100756.78
2019-03-05T22:48:31.546Z,100761.26
2019-03-05T22:50:58.800Z,100760.00
2019-03-05T22:53:26.341Z,100756.41
2019-03-05T22:55:53.569Z,100758.56
2019-03-05T22:58:20.807Z,100754.54
2019-03-05T23:01:13.454Z,100753.88
2019-03-05T23:03:50.874Z,100748.29
2019-03-05T23:06:18.267Z,100752.57
2019-03-05T23:08:45.496Z,100746.93
2019-03-05T23:11:12.928Z,100748.05
2019-03-05T23:13:40.398Z,100743.95
2019-03-05T23:16:07.632Z,100742.13
2019-03-05T23:18:34.972Z,100741.25
2019-03-05T23:21:02.401Z,100740.73
2019-03-05T23:23:29.648Z,100743.76
2019-03-05T23:25:57.102Z,100738.45
2019-03-05T23:28:24.546Z,100740.36
2019-03-05T23:30:51.782Z,100738.02
2019-03-05T23:33:19.250Z,100732.14
2019-03-05T23:35:46.584Z,100737.84
2019-03-05T23:38:13.875Z,100730.97
2019-03-05T23:40:41.194Z,100735.17
2019-03-05T23:43:08.449Z,100734.89
2019-03-05T23:45:35.811Z,100730.83
2019-03-05T23:48:03.157Z,100729.05
2019-03-05T23:50:30.422Z,100728.00
2019-03-05T23:52:57.658Z,100727.38
2019-03-05T23:55:24.923Z,100728.69
2019-03-05T23:57:52.182Z,100728.03
